createdAt,value
2023-01-06T00:02:09.736Z,7.51
2023-01-06T00:04:42.908Z,7.51
2023-01-06T00:07:19.181Z,7.47
2023-01-06T00:09:52.030Z,7.44
2023-01-06T00:12:26.591Z,7.42
2023-01-06T00:14:59.020Z,7.49
2023-01-06T00:17:31.840Z,7.56
2023-01-06T00:20:05.010Z,7.57
2023-01-06T00:22:38.002Z,7.52
2023-01-06T00:25:12.471Z,7.44
2023-01-06T00:27:47.396Z,7.57
2023-01-06T00:30:20.441Z,7.49
2023-01-06T00:32:53.444Z,7.41
2023-01-06T00:35:26.027Z,7.45
2023-01-06T00:37:58.568Z,7.51
2023-01-06T00:40:31.037Z,7.55
2023-01-06T00:43:05.390Z,7.48
2023-01-06T00:45:38.495Z,7.48
2023-01-06T00:48:10.922Z,7.48
2023-01-06T00:50:43.929Z,7.50
2023-01-06T00:53:16.932Z,7.52
2023-01-06T00:55:49.454Z,7.53
2023-01-06T00:58:22.183Z,7.46
2023-01-06T01:00:55.788Z,7.47
2023-01-06T01:03:28.520Z,7.42
2023-01-06T01:06:04.483Z,7.48
2023-01-06T01:08:37.135Z,7.50
2023-01-06T01:11:31.381Z,7.41
2023-01-06T01:14:04.063Z,7.45
2023-01-06T01:16:36.501Z,7.49
2023-01-06T01:19:09.711Z,7.53
2023-01-06T01:21:44.637Z,7.53
2023-01-06T01:24:17.469Z,7.50
2023-01-06T01:26:50.734Z,7.53
2023-01-06T01:29:23.200Z,7.63
2023-01-06T01:31:56.587Z,7.64
2023-01-06T01:34:29.035Z,7.54
2023-01-06T01:37:01.859Z,7.57
2023-01-06T01:39:34.242Z,7.62
2023-01-06T01:42:08.313Z,7.64
2023-01-06T01:45:05.116Z,7.65
2023-01-06T01:47:46.011Z,7.56
2023-01-06T01:50:31.932Z,7.64
2023-01-06T01:53:08.785Z,7.68
2023-01-06T01:55:43.200Z,7.65
2023-01-06T01:58:19.783Z,7.65
2023-01-06T02:00:52.838Z,7.66
2023-01-06T02:03:27.540Z,7.66
2023-01-06T02:06:02.560Z,7.73
2023-01-06T02:08:39.496Z,7.72
2023-01-06T02:11:12.187Z,7.69
2023-01-06T02:13:47.740Z,7.71
2023-01-06T02:16:40.933Z,7.78
2023-01-06T02:19:32.413Z,7.81
2023-01-06T02:22:23.235Z,7.75
2023-01-06T02:25:29.586Z,7.59
2023-01-06T02:28:23.819Z,7.54
2023-01-06T02:31:34.897Z,7.61
2023-01-06T02:34:15.050Z,7.52
2023-01-06T02:36:59.819Z,7.67
2023-01-06T02:39:45.676Z,7.70
2023-01-06T02:42:23.771Z,7.68
2023-01-06T02:45:04.805Z,7.59
2023-01-06T02:47:45.260Z,7.67
2023-01-06T02:50:25.763Z,7.68
2023-01-06T02:53:07.872Z,7.73
2023-01-06T02:55:45.494Z,7.59
2023-01-06T02:58:27.749Z,7.81
2023-01-06T03:01:04.477Z,7.74
2023-01-06T03:03:40.810Z,7.72
2023-01-06T03:06:17.834Z,7.74
2023-01-06T03:08:53.354Z,7.77
2023-01-06T03:11:28.204Z,7.74
2023-01-06T03:14:00.973Z,7.71
2023-01-06T03:16:33.711Z,7.76
2023-01-06T03:19:07.040Z,7.77
2023-01-06T03:21:44.697Z,7.80
2023-01-06T03:24:18.809Z,7.81
2023-01-06T03:26:53.974Z,7.81
2023-01-06T03:29:25.432Z,7.80
2023-01-06T03:32:05.114Z,7.80
2023-01-06T03:34:58.131Z,7.78
2023-01-06T03:37:40.074Z,7.82
2023-01-06T03:40:26.350Z,7.85
2023-01-06T03:43:16.600Z,7.90
2023-01-06T03:46:03.698Z,7.93
2023-01-06T03:48:52.672Z,7.94
2023-01-06T03:51:38.192Z,7.85
2023-01-06T03:54:19.925Z,7.98
2023-01-06T03:56:58.727Z,7.99
2023-01-06T03:59:36.605Z,8.00
2023-01-06T04:02:09.752Z,8.00
2023-01-06T04:04:42.589Z,8.01
2023-01-06T04:07:16.247Z,8.03
2023-01-06T04:09:49.091Z,8.03
2023-01-06T04:12:40.097Z,8.05
2023-01-06T04:15:17.956Z,8.04
2023-01-06T04:17:52.013Z,8.03
2023-01-06T04:20:27.479Z,8.05
2023-01-06T04:23:11.571Z,8.04
2023-01-06T04:25:45.330Z,7.99
2023-01-06T04:28:44.195Z,8.01
2023-01-06T04:31:16.736Z,8.04
2023-01-06T04:33:49.267Z,8.06
2023-01-06T04:36:22.123Z,8.07
2023-01-06T04:38:57.070Z,8.04
2023-01-06T04:41:32.138Z,8.05
2023-01-06T04:44:04.697Z,8.05
2023-01-06T04:46:37.132Z,8.04
2023-01-06T04:49:09.879Z,8.04
2023-01-06T04:51:42.195Z,8.04
2023-01-06T04:54:14.573Z,8.03
2023-01-06T04:56:47.041Z,7.92
2023-01-06T04:59:19.632Z,8.03
2023-01-06T05:01:52.168Z,8.03
2023-01-06T05:04:25.049Z,8.03
2023-01-06T05:06:57.403Z,8.02
2023-01-06T05:09:29.836Z,8.04
2023-01-06T05:12:02.526Z,8.03
2023-01-06T05:14:35.037Z,8.04
2023-01-06T05:17:07.452Z,8.05
2023-01-06T05:19:41.789Z,8.06
2023-01-06T05:22:15.106Z,8.08
2023-01-06T05:24:47.478Z,8.08
2023-01-06T05:27:19.782Z,8.08
2023-01-06T05:29:52.273Z,7.98
2023-01-06T05:32:24.602Z,8.07
2023-01-06T05:34:57.024Z,8.07
2023-01-06T05:37:29.386Z,8.07
2023-01-06T05:40:01.829Z,8.07
2023-01-06T05:42:34.829Z,8.05
2023-01-06T05:45:10.391Z,8.07
2023-01-06T05:47:43.711Z,7.95
2023-01-06T05:50:16.172Z,7.94
2023-01-06T05:52:48.666Z,8.07
2023-01-06T05:55:21.069Z,8.07
2023-01-06T05:57:53.377Z,8.05
2023-01-06T06:00:26.433Z,8.01
2023-01-06T06:02:59.486Z,7.82
2023-01-06T06:05:31.937Z,8.04
2023-01-06T06:08:04.552Z,8.04
2023-01-06T06:10:37.017Z,8.05
2023-01-06T06:13:09.723Z,8.06
2023-01-06T06:15:42.045Z,7.97
2023-01-06T06:18:14.448Z,8.07
2023-01-06T06:20:47.550Z,8.05
2023-01-06T06:23:20.858Z,8.07
2023-01-06T06:25:54.150Z,8.05
2023-01-06T06:28:26.871Z,8.06
2023-01-06T06:31:04.091Z,8.06
2023-01-06T06:33:36.949Z,8.06
2023-01-06T06:36:16.201Z,8.06
2023-01-06T06:38:50.279Z,8.04
2023-01-06T06:41:24.126Z,8.01
2023-01-06T06:43:57.183Z,8.04
2023-01-06T06:46:29.498Z,7.90
2023-01-06T06:49:01.998Z,8.03
2023-01-06T06:51:35.597Z,7.99
2023-01-06T06:54:07.563Z,8.01
2023-01-06T06:56:39.902Z,8.01
2023-01-06T06:59:14.459Z,8.03
2023-01-06T07:01:46.896Z,8.03
2023-01-06T07:04:19.280Z,8.03
2023-01-06T07:06:58.958Z,8.02
2023-01-06T07:09:31.318Z,8.01
2023-01-06T07:12:03.874Z,8.02
2023-01-06T07:14:36.633Z,8.00
2023-01-06T07:17:09.199Z,8.01
2023-01-06T07:19:41.543Z,7.90
2023-01-06T07:22:14.057Z,7.98
2023-01-06T07:24:46.390Z,8.00
2023-01-06T07:27:19.016Z,8.00
2023-01-06T07:29:51.360Z,8.01
2023-01-06T07:32:23.805Z,7.99
2023-01-06T07:34:56.117Z,8.00
2023-01-06T07:37:28.580Z,7.97
2023-01-06T07:40:01.254Z,7.97
2023-01-06T07:42:33.821Z,7.98
2023-01-06T07:45:09.832Z,7.88
2023-01-06T07:47:42.646Z,7.99
2023-01-06T07:50:14.999Z,7.99
2023-01-06T07:52:47.447Z,8.00
2023-01-06T07:55:32.241Z,8.01
2023-01-06T07:58:11.424Z,8.00
2023-01-06T08:00:43.901Z,7.99
2023-01-06T08:03:16.367Z,7.87
2023-01-06T08:05:49.088Z,7.89
2023-01-06T08:08:22.434Z,7.89
2023-01-06T08:10:55.017Z,7.85
2023-01-06T08:13:27.590Z,7.83
2023-01-06T08:16:00.553Z,7.92
2023-01-06T08:18:33.762Z,7.79
2023-01-06T08:21:07.733Z,7.78
2023-01-06T08:23:40.859Z,7.88
2023-01-06T08:26:15.944Z,7.82
2023-01-06T08:28:49.201Z,7.83
2023-01-06T08:31:23.486Z,7.82
2023-01-06T08:33:55.978Z,7.82
2023-01-06T08:36:29.197Z,7.91
2023-01-06T08:39:01.739Z,7.87
2023-01-06T08:41:34.154Z,7.85
2023-01-06T08:44:07.266Z,7.93
2023-01-06T08:46:40.642Z,7.86
2023-01-06T08:49:13.206Z,7.91
2023-01-06T08:51:45.628Z,7.85
2023-01-06T08:54:18.384Z,7.87
2023-01-06T08:56:56.290Z,7.90
2023-01-06T08:59:33.878Z,7.80
2023-01-06T09:02:06.714Z,7.92
2023-01-06T09:04:39.984Z,7.92
2023-01-06T09:07:12.359Z,8.04
2023-01-06T09:09:44.861Z,8.04
2023-01-06T09:12:17.670Z,8.11
2023-01-06T09:14:50.704Z,8.10
2023-01-06T09:17:23.547Z,8.22
2023-01-06T09:19:55.996Z,8.18
2023-01-06T09:22:28.727Z,8.18
2023-01-06T09:25:01.313Z,8.20
2023-01-06T09:27:33.630Z,8.20
2023-01-06T09:30:08.159Z,8.15
2023-01-06T09:32:40.568Z,8.03
2023-01-06T09:35:13.620Z,8.14
2023-01-06T09:37:46.138Z,8.22
2023-01-06T09:40:24.781Z,8.05
2023-01-06T09:43:24.478Z,7.99
2023-01-06T09:46:03.022Z,8.04
2023-01-06T09:48:39.934Z,8.11
2023-01-06T09:51:22.082Z,8.14
2023-01-06T09:53:59.524Z,8.12
2023-01-06T09:56:32.663Z,7.82
2023-01-06T09:59:13.828Z,7.86
2023-01-06T10:01:52.326Z,7.99
2023-01-06T10:04:42.310Z,8.08
2023-01-06T10:07:47.937Z,8.12
2023-01-06T10:10:28.893Z,8.22
2023-01-06T10:13:17.251Z,8.22
2023-01-06T10:15:54.465Z,8.22
2023-01-06T10:18:38.278Z,8.18
2023-01-06T10:21:19.475Z,8.29
2023-01-06T10:24:08.402Z,8.24
2023-01-06T10:26:46.183Z,8.24
2023-01-06T10:29:21.320Z,8.23
2023-01-06T10:31:57.946Z,8.24
2023-01-06T10:34:33.907Z,8.30
2023-01-06T10:37:18.015Z,8.29
2023-01-06T10:39:57.145Z,8.31
2023-01-06T10:42:53.590Z,8.32
2023-01-06T10:45:30.775Z,8.26
2023-01-06T10:48:08.041Z,8.32
2023-01-06T10:50:40.979Z,8.30
2023-01-06T10:53:15.611Z,8.33
2023-01-06T10:55:53.208Z,8.32
2023-01-06T10:58:35.815Z,8.26
2023-01-06T11:01:12.971Z,8.11
2023-01-06T11:03:45.963Z,8.16
2023-01-06T11:06:25.342Z,8.25
2023-01-06T11:08:58.412Z,8.31
2023-01-06T11:11:31.707Z,8.26
2023-01-06T11:14:06.547Z,8.12
2023-01-06T11:16:39.862Z,7.99
2023-01-06T11:19:33.461Z,8.04
2023-01-06T11:22:07.213Z,8.09
2023-01-06T11:24:53.553Z,8.06
2023-01-06T11:27:26.228Z,7.99
2023-01-06T11:29:58.760Z,7.98
2023-01-06T11:32:32.596Z,8.06
2023-01-06T11:35:09.152Z,8.13
2023-01-06T11:37:43.410Z,8.19
2023-01-06T11:40:25.861Z,8.02
2023-01-06T11:43:03.390Z,8.16
2023-01-06T11:45:39.282Z,8.11
2023-01-06T11:48:20.479Z,8.16
2023-01-06T11:50:58.312Z,8.25
2023-01-06T11:53:33.565Z,8.14
2023-01-06T11:56:09.182Z,8.18
2023-01-06T11:58:55.056Z,8.21
2023-01-06T12:01:33.389Z,8.30
2023-01-06T12:04:13.834Z,8.34
2023-01-06T12:06:47.863Z,8.33
2023-01-06T12:09:25.578Z,8.38
2023-01-06T12:12:00.758Z,8.31
2023-01-06T12:14:36.808Z,8.22
2023-01-06T12:17:13.850Z,8.31
2023-01-06T12:19:51.156Z,8.38
2023-01-06T12:22:30.493Z,8.41
2023-01-06T12:25:04.070Z,8.45
2023-01-06T12:27:43.389Z,8.41
2023-01-06T12:30:24.248Z,8.31
2023-01-06T12:32:59.922Z,8.29
2023-01-06T12:35:37.857Z,8.26
2023-01-06T12:38:28.561Z,8.33
2023-01-06T12:41:07.095Z,8.27
2023-01-06T12:43:42.340Z,8.33
2023-01-06T12:46:22.729Z,8.20
2023-01-06T12:48:59.107Z,8.29
2023-01-06T12:51:37.129Z,8.32
2023-01-06T12:54:16.168Z,8.30
2023-01-06T12:57:06.600Z,8.26
2023-01-06T12:59:52.041Z,8.25
2023-01-06T13:02:43.208Z,8.17
2023-01-06T13:05:34.275Z,8.30
2023-01-06T13:08:22.675Z,8.26
2023-01-06T13:11:01.590Z,8.17
2023-01-06T13:13:50.599Z,8.20
2023-01-06T13:16:28.627Z,8.15
2023-01-06T13:19:13.696Z,8.22
2023-01-06T13:21:45.592Z,8.22
2023-01-06T13:24:31.461Z,8.19
2023-01-06T13:27:35.168Z,8.18
2023-01-06T13:30:27.251Z,8.21
2023-01-06T13:33:12.321Z,8.11
2023-01-06T13:35:58.276Z,8.17
2023-01-06T13:38:43.555Z,8.04
2023-01-06T13:41:19.885Z,8.10
2023-01-06T13:43:55.855Z,7.98
2023-01-06T13:46:31.943Z,8.05
2023-01-06T13:49:07.108Z,7.99
2023-01-06T13:51:44.405Z,8.05
2023-01-06T13:55:03.107Z,8.05
2023-01-06T13:57:39.193Z,8.05
2023-01-06T14:00:25.443Z,8.08
2023-01-06T14:03:27.806Z,8.06
2023-01-06T14:06:06.750Z,7.94
2023-01-06T14:08:49.164Z,8.05
2023-01-06T14:11:31.906Z,7.96
2023-01-06T14:14:08.673Z,7.98
2023-01-06T14:16:47.528Z,7.96
2023-01-06T14:19:23.123Z,8.02
2023-01-06T14:22:14.495Z,8.12
2023-01-06T14:24:53.598Z,8.03
2023-01-06T14:27:56.518Z,8.03
2023-01-06T14:30:31.841Z,8.07
2023-01-06T14:33:23.671Z,8.03
2023-01-06T14:36:05.149Z,8.10
2023-01-06T14:38:46.072Z,8.06
2023-01-06T14:41:26.080Z,8.10
2023-01-06T14:44:03.020Z,8.10
2023-01-06T14:46:41.310Z,7.99
2023-01-06T14:49:20.960Z,8.10
2023-01-06T14:51:58.947Z,8.19
2023-01-06T14:54:37.811Z,8.03
2023-01-06T14:57:27.674Z,7.92
2023-01-06T15:00:15.514Z,8.08
2023-01-06T15:02:51.516Z,8.11
2023-01-06T15:05:27.635Z,8.10
2023-01-06T15:08:05.845Z,8.21
2023-01-06T15:10:43.071Z,8.20
2023-01-06T15:13:29.832Z,8.22
2023-01-06T15:16:05.968Z,8.31
2023-01-06T15:18:43.443Z,8.17
2023-01-06T15:21:17.997Z,8.18
2023-01-06T15:23:53.426Z,8.18
2023-01-06T15:26:29.044Z,8.02
2023-01-06T15:29:06.212Z,8.07
2023-01-06T15:31:42.751Z,8.01
2023-01-06T15:34:18.977Z,7.98
2023-01-06T15:36:55.397Z,8.12
2023-01-06T15:39:31.366Z,8.11
2023-01-06T15:42:08.552Z,8.15
2023-01-06T15:44:43.457Z,8.18
2023-01-06T15:47:29.956Z,8.19
2023-01-06T15:50:05.118Z,8.20
2023-01-06T15:52:41.411Z,8.26
2023-01-06T15:55:28.901Z,8.20
2023-01-06T15:58:08.295Z,8.29
2023-01-06T16:00:49.304Z,8.18
2023-01-06T16:03:24.715Z,8.09
2023-01-06T16:06:12.292Z,8.15
2023-01-06T16:08:47.380Z,8.22
2023-01-06T16:11:49.479Z,8.17
2023-01-06T16:14:36.214Z,8.13
2023-01-06T16:17:12.218Z,8.00
2023-01-06T16:19:50.972Z,8.02
2023-01-06T16:22:38.830Z,8.13
2023-01-06T16:25:27.490Z,8.08
2023-01-06T16:28:02.367Z,8.22
2023-01-06T16:30:36.725Z,8.23
2023-01-06T16:33:39.039Z,8.30
2023-01-06T16:36:20.140Z,8.26
2023-01-06T16:38:52.835Z,8.23
2023-01-06T16:41:25.498Z,8.26
2023-01-06T16:43:58.059Z,8.29
2023-01-06T16:46:30.843Z,8.38
2023-01-06T16:49:11.172Z,8.25
2023-01-06T16:51:45.445Z,8.17
2023-01-06T16:54:18.912Z,8.20
2023-01-06T16:56:52.304Z,8.20
2023-01-06T16:59:25.644Z,8.29
2023-01-06T17:01:58.850Z,8.35
2023-01-06T17:04:32.307Z,8.33
2023-01-06T17:07:07.868Z,8.36
2023-01-06T17:09:41.607Z,8.44
2023-01-06T17:12:36.603Z,8.49
2023-01-06T17:15:13.782Z,8.54
2023-01-06T17:17:46.629Z,8.51
2023-01-06T17:20:19.656Z,8.39
2023-01-06T17:22:52.323Z,8.37
2023-01-06T17:25:25.583Z,8.26
2023-01-06T17:27:58.062Z,8.32
2023-01-06T17:30:30.548Z,8.31
2023-01-06T17:33:05.303Z,8.51
2023-01-06T17:35:37.708Z,8.63
2023-01-06T17:38:19.608Z,8.54
2023-01-06T17:40:54.925Z,8.53
2023-01-06T17:43:33.673Z,8.56
2023-01-06T17:46:20.543Z,8.66
2023-01-06T17:48:57.757Z,8.75
2023-01-06T17:51:30.374Z,8.78
2023-01-06T17:54:22.238Z,8.83
2023-01-06T17:56:55.315Z,8.91
2023-01-06T17:59:28.088Z,8.86
2023-01-06T18:02:02.011Z,8.80
2023-01-06T18:04:34.813Z,8.90
2023-01-06T18:07:15.134Z,8.91
2023-01-06T18:09:49.248Z,8.82
2023-01-06T18:12:22.224Z,8.77
2023-01-06T18:14:55.838Z,8.91
2023-01-06T18:17:30.285Z,8.90
2023-01-06T18:20:03.398Z,8.82
2023-01-06T18:22:40.747Z,8.93
2023-01-06T18:25:20.831Z,9.00
2023-01-06T18:27:54.205Z,8.93
2023-01-06T18:30:28.136Z,8.97
2023-01-06T18:33:02.155Z,9.10
2023-01-06T18:35:36.034Z,9.11
2023-01-06T18:38:09.143Z,9.24
2023-01-06T18:40:45.675Z,9.30
2023-01-06T18:43:27.883Z,9.44
2023-01-06T18:46:03.630Z,9.55
2023-01-06T18:48:39.276Z,9.49
2023-01-06T18:51:23.685Z,9.65
2023-01-06T18:54:09.292Z,9.81
2023-01-06T18:56:44.779Z,9.76
2023-01-06T18:59:27.445Z,9.82
2023-01-06T19:02:12.522Z,9.80
2023-01-06T19:04:49.282Z,9.84
2023-01-06T19:07:28.861Z,9.83
2023-01-06T19:10:04.151Z,10.02
2023-01-06T19:12:40.387Z,10.01
2023-01-06T19:15:27.896Z,10.06
2023-01-06T19:18:01.537Z,9.91
2023-01-06T19:20:39.576Z,10.03
2023-01-06T19:23:20.525Z,10.07
2023-01-06T19:26:01.425Z,10.11
2023-01-06T19:28:37.257Z,10.10
2023-01-06T19:31:22.549Z,10.08
2023-01-06T19:34:00.565Z,10.05
2023-01-06T19:36:47.147Z,10.12
2023-01-06T19:39:31.661Z,10.19
2023-01-06T19:42:18.482Z,10.10
2023-01-06T19:44:55.931Z,10.11
2023-01-06T19:47:35.830Z,10.06
2023-01-06T19:50:19.924Z,10.15
2023-01-06T19:52:58.890Z,10.15
2023-01-06T19:55:33.985Z,10.19
2023-01-06T19:58:15.436Z,10.27
2023-01-06T20:00:49.744Z,10.07
2023-01-06T20:03:30.492Z,10.06
2023-01-06T20:06:03.459Z,10.12
2023-01-06T20:08:36.451Z,10.18
2023-01-06T20:11:09.664Z,10.18
2023-01-06T20:13:43.567Z,10.26
2023-01-06T20:16:17.729Z,10.21
2023-01-06T20:18:51.286Z,10.21
2023-01-06T20:21:24.480Z,10.20
2023-01-06T20:23:58.794Z,10.25
2023-01-06T20:26:34.216Z,10.27
2023-01-06T20:29:08.369Z,10.18
2023-01-06T20:31:41.371Z,10.17
2023-01-06T20:34:14.695Z,10.10
2023-01-06T20:36:48.145Z,10.12
2023-01-06T20:39:21.577Z,10.15
2023-01-06T20:41:55.041Z,10.21
2023-01-06T20:44:28.195Z,10.17
2023-01-06T20:47:01.804Z,10.08
2023-01-06T20:49:35.156Z,10.18
2023-01-06T20:52:08.389Z,10.15
2023-01-06T20:54:42.151Z,10.08
2023-01-06T20:57:15.273Z,10.07
2023-01-06T20:59:49.098Z,10.10
2023-01-06T21:02:22.222Z,10.07
2023-01-06T21:04:55.442Z,10.08
2023-01-06T21:07:28.570Z,9.95
2023-01-06T21:10:01.441Z,10.08
2023-01-06T21:12:34.539Z,10.02
2023-01-06T21:15:10.419Z,9.95
2023-01-06T21:17:44.473Z,9.82
2023-01-06T21:20:17.920Z,9.86
2023-01-06T21:22:51.397Z,9.92
2023-01-06T21:25:25.235Z,9.94
2023-01-06T21:27:58.747Z,9.91
2023-01-06T21:30:32.818Z,9.86
2023-01-06T21:33:06.338Z,9.82
2023-01-06T21:35:39.764Z,9.87
2023-01-06T21:38:12.815Z,9.94
2023-01-06T21:40:46.015Z,9.90
2023-01-06T21:43:19.505Z,9.74
2023-01-06T21:45:53.051Z,9.85
2023-01-06T21:48:27.148Z,9.79
2023-01-06T21:51:00.137Z,9.84
2023-01-06T21:53:33.603Z,9.83
2023-01-06T21:56:08.718Z,9.83
2023-01-06T21:58:42.082Z,9.80
2023-01-06T22:01:15.862Z,9.75
2023-01-06T22:03:49.058Z,9.72
2023-01-06T22:06:24.083Z,9.75
2023-01-06T22:08:55.697Z,9.74
2023-01-06T22:11:29.052Z,9.71
2023-01-06T22:14:02.574Z,9.63
2023-01-06T22:16:36.120Z,9.66
2023-01-06T22:19:10.697Z,9.50
2023-01-06T22:21:45.705Z,9.60
2023-01-06T22:24:19.917Z,9.64
2023-01-06T22:26:52.967Z,9.62
2023-01-06T22:29:25.902Z,9.57
2023-01-06T22:32:04.204Z,9.50
2023-01-06T22:34:37.434Z,9.53
2023-01-06T22:37:10.496Z,9.52
2023-01-06T22:39:45.549Z,9.35
2023-01-06T22:42:19.563Z,9.43
2023-01-06T22:44:54.130Z,9.29
2023-01-06T22:47:27.337Z,9.41
2023-01-06T22:50:00.689Z,9.51
2023-01-06T22:52:33.873Z,9.48
2023-01-06T22:55:10.256Z,9.42
2023-01-06T22:57:43.300Z,9.34
2023-01-06T23:00:19.899Z,9.28
2023-01-06T23:02:52.793Z,9.27
2023-01-06T23:05:25.788Z,9.21
2023-01-06T23:07:58.539Z,9.21
2023-01-06T23:10:31.134Z,9.19
2023-01-06T23:13:04.396Z,9.24
2023-01-06T23:15:38.749Z,9.15
2023-01-06T23:18:12.727Z,9.26
2023-01-06T23:20:56.858Z,9.27
2023-01-06T23:23:30.739Z,9.23
2023-01-06T23:26:08.133Z,9.21
2023-01-06T23:28:41.358Z,9.10
2023-01-06T23:31:16.605Z,9.13
2023-01-06T23:33:51.166Z,9.09
2023-01-06T23:36:24.400Z,9.08
2023-01-06T23:38:58.191Z,9.01
2023-01-06T23:41:34.780Z,9.00
2023-01-06T23:44:11.805Z,8.96
2023-01-06T23:46:48.726Z,8.97
2023-01-06T23:49:32.943Z,8.94
2023-01-06T23:52:07.323Z,8.93
2023-01-06T23:54:46.253Z,8.92
2023-01-06T23:57:21.555Z,8.89
2023-01-06T23:59:56.579Z,8.89
